Riga, Latvia
Current Conditions -  °F | °C
As of 3:20 PM on Thursday 23 Oct 2014 (Local Time) from EVRA Reporting Station
Clear Clear  
Wind Chill: 24°   Ceiling: Unl
Heat Index: 32°   Visibility: 6mi
Dew Point: 14°   Wind: 9mph
Humidity: 47%   Direction: 110°ESE
Pressure: 30.45"   Gusts: NA
Location:  56.97°N, 24.13°E
Report Text: EVRA 231220Z 11008KT 040V140 CAVOK M00/M10 Q1031 R18/090095 NOSIG
Loading
Personal Weather Stations






























Interactive Weather Map
Tropical Storm Tracking
New forecast layout! Learn more

10-Day Weather Forecast

Advertisements
Track Severe Weather on mobile